createdAt,value
2019-04-27T00:02:13.817Z,24.00
2019-04-27T00:05:14.993Z,23.60
2019-04-27T00:07:56.241Z,24.10
2019-04-27T00:10:30.232Z,22.57
2019-04-27T00:13:02.129Z,23.10
2019-04-27T00:15:43.936Z,22.50
2019-04-27T00:18:23.960Z,21.43
2019-04-27T00:21:04.658Z,23.73
2019-04-27T00:23:35.077Z,23.93
2019-04-27T00:26:05.097Z,23.00
2019-04-27T00:28:34.954Z,21.03
2019-04-27T00:31:05.132Z,20.80
2019-04-27T00:33:35.706Z,21.17
2019-04-27T00:36:13.195Z,19.13
2019-04-27T00:38:50.006Z,22.10
2019-04-27T00:41:39.110Z,21.97
2019-04-27T00:44:08.973Z,20.77
2019-04-27T00:46:38.862Z,20.80
2019-04-27T00:49:08.690Z,20.70
2019-04-27T00:51:38.878Z,19.87
2019-04-27T00:54:09.100Z,20.67
2019-04-27T00:56:48.095Z,19.50
2019-04-27T00:59:55.413Z,20.40
2019-04-27T01:02:35.399Z,19.07
2019-04-27T01:05:08.666Z,19.53
2019-04-27T01:07:38.535Z,21.43
2019-04-27T01:10:09.385Z,18.77
2019-04-27T01:12:39.497Z,20.90
2019-04-27T01:15:09.395Z,19.63
2019-04-27T01:17:39.276Z,19.40
2019-04-27T01:20:09.289Z,19.23
2019-04-27T01:22:39.285Z,19.67
2019-04-27T01:25:09.417Z,19.10
2019-04-27T01:27:56.451Z,19.90
2019-04-27T01:30:51.954Z,19.97
2019-04-27T01:33:21.838Z,20.20
2019-04-27T01:35:51.678Z,20.40
2019-04-27T01:38:21.616Z,21.87
2019-04-27T01:40:51.455Z,22.13
2019-04-27T01:43:21.319Z,24.70
2019-04-27T01:45:51.279Z,22.50
2019-04-27T01:48:25.573Z,23.00
2019-04-27T01:50:53.437Z,24.63
2019-04-27T01:53:23.620Z,27.27
2019-04-27T01:55:53.506Z,26.03
2019-04-27T01:58:23.359Z,28.13
2019-04-27T02:01:19.437Z,31.87
2019-04-27T02:03:59.922Z,31.57
2019-04-27T02:06:30.070Z,32.97
2019-04-27T02:09:00.001Z,33.53
2019-04-27T02:11:29.900Z,34.43
2019-04-27T02:13:59.770Z,33.90
2019-04-27T02:16:30.644Z,34.30
2019-04-27T02:19:00.606Z,34.10
2019-04-27T02:21:30.460Z,37.47
2019-04-27T02:24:00.304Z,35.50
2019-04-27T02:26:30.807Z,35.60
2019-04-27T02:29:31.973Z,39.80
2019-04-27T02:32:20.924Z,36.97
2019-04-27T02:34:54.770Z,39.20
2019-04-27T02:37:24.621Z,40.03
2019-04-27T02:39:54.528Z,38.00
2019-04-27T02:42:26.035Z,40.30
2019-04-27T02:44:55.928Z,37.90
2019-04-27T02:47:26.027Z,37.83
2019-04-27T02:49:55.910Z,36.17
2019-04-27T02:52:49.973Z,38.60
2019-04-27T02:55:19.926Z,39.83
2019-04-27T02:57:50.584Z,39.77
2019-04-27T03:00:20.759Z,37.83
2019-04-27T03:02:55.547Z,38.07
2019-04-27T03:05:29.313Z,38.40
2019-04-27T03:07:59.636Z,38.93
2019-04-27T03:10:32.104Z,35.87
2019-04-27T03:13:11.127Z,38.90
2019-04-27T03:15:49.721Z,39.60
2019-04-27T03:18:40.307Z,36.90
2019-04-27T03:21:13.430Z,39.90
2019-04-27T03:23:43.473Z,38.50
2019-04-27T03:26:44.373Z,40.40
2019-04-27T03:29:14.892Z,40.73
2019-04-27T03:31:47.342Z,40.33
2019-04-27T03:34:17.728Z,39.13
2019-04-27T03:36:49.323Z,39.07
2019-04-27T03:39:20.171Z,39.60
2019-04-27T03:41:52.866Z,42.40
2019-04-27T03:44:22.064Z,38.87
2019-04-27T03:46:52.256Z,36.17
2019-04-27T03:49:34.715Z,35.40
2019-04-27T03:52:09.644Z,35.97
2019-04-27T03:54:43.959Z,33.27
2019-04-27T03:57:23.302Z,32.57
2019-04-27T04:00:01.642Z,30.53
2019-04-27T04:02:31.730Z,33.33
2019-04-27T04:05:01.766Z,32.23
2019-04-27T04:07:31.699Z,31.60
2019-04-27T04:10:01.590Z,33.60
2019-04-27T04:12:41.832Z,32.07
2019-04-27T04:15:16.781Z,32.27
2019-04-27T04:17:49.506Z,28.40
2019-04-27T04:20:20.220Z,28.27
2019-04-27T04:22:51.385Z,29.73
2019-04-27T04:25:21.854Z,29.70
2019-04-27T04:27:51.735Z,27.50
2019-04-27T04:30:21.641Z,28.53
2019-04-27T04:32:52.012Z,27.93
2019-04-27T04:35:25.070Z,29.73
2019-04-27T04:37:55.298Z,29.53
2019-04-27T04:40:32.308Z,29.00
2019-04-27T04:43:10.545Z,30.63
2019-04-27T04:45:49.766Z,29.20
2019-04-27T04:48:20.094Z,27.97
2019-04-27T04:50:50.289Z,29.77
2019-04-27T04:53:20.896Z,28.70
2019-04-27T04:55:50.984Z,28.70
2019-04-27T04:58:21.247Z,27.57
2019-04-27T05:00:51.232Z,29.07
2019-04-27T05:03:21.830Z,30.80
2019-04-27T05:05:51.955Z,30.00
2019-04-27T05:08:21.785Z,31.80
2019-04-27T05:10:51.650Z,30.27
2019-04-27T05:13:21.554Z,29.97
2019-04-27T05:15:51.426Z,31.83
2019-04-27T05:18:21.299Z,29.77
2019-04-27T05:21:13.875Z,33.43
2019-04-27T05:23:44.243Z,33.97
2019-04-27T05:26:14.482Z,31.97
2019-04-27T05:28:45.006Z,32.87
2019-04-27T05:31:14.935Z,35.53
2019-04-27T05:33:45.104Z,31.93
2019-04-27T05:36:17.187Z,33.83
2019-04-27T05:39:07.368Z,31.57
2019-04-27T05:41:39.313Z,30.50
2019-04-27T05:44:25.452Z,32.20
2019-04-27T05:47:05.421Z,30.10
2019-04-27T05:49:41.101Z,30.80
2019-04-27T05:52:33.271Z,32.67
2019-04-27T05:55:03.501Z,31.70
2019-04-27T05:57:33.381Z,32.20
2019-04-27T06:00:04.296Z,32.97
2019-04-27T06:02:34.135Z,31.27
2019-04-27T06:05:04.251Z,33.50
2019-04-27T06:07:34.234Z,31.30
2019-04-27T06:10:04.682Z,33.40
2019-04-27T06:12:34.619Z,31.57
2019-04-27T06:15:05.032Z,31.33
2019-04-27T06:17:34.911Z,34.83
2019-04-27T06:20:09.833Z,33.77
2019-04-27T06:22:39.721Z,33.63
2019-04-27T06:25:11.856Z,31.50
2019-04-27T06:27:42.208Z,30.40
2019-04-27T06:30:12.569Z,28.67
2019-04-27T06:32:42.689Z,29.67
2019-04-27T06:35:13.469Z,29.90
2019-04-27T06:37:43.714Z,31.63
2019-04-27T06:40:13.657Z,31.80
2019-04-27T06:42:43.516Z,32.40
2019-04-27T06:45:13.837Z,31.03
2019-04-27T06:47:43.751Z,32.07
2019-04-27T06:50:13.744Z,32.90
2019-04-27T06:52:43.969Z,34.77
2019-04-27T06:55:14.265Z,32.30
2019-04-27T06:57:44.179Z,33.07
2019-04-27T07:00:14.358Z,31.63
2019-04-27T07:02:44.304Z,31.57
2019-04-27T07:05:14.917Z,30.33
2019-04-27T07:07:44.795Z,31.30
2019-04-27T07:10:15.095Z,31.33
2019-04-27T07:12:44.981Z,29.60
2019-04-27T07:15:15.585Z,31.13
2019-04-27T07:17:45.626Z,30.83
2019-04-27T07:20:15.690Z,30.57
2019-04-27T07:22:45.572Z,29.23
2019-04-27T07:25:15.503Z,30.13
2019-04-27T07:27:45.805Z,30.60
2019-04-27T07:30:16.048Z,28.17
2019-04-27T07:32:45.922Z,27.63
2019-04-27T07:35:15.783Z,26.77
2019-04-27T07:37:45.682Z,27.60
2019-04-27T07:40:16.135Z,24.83
2019-04-27T07:42:49.623Z,27.70
2019-04-27T07:45:25.641Z,26.77
2019-04-27T07:47:55.514Z,25.77
2019-04-27T07:50:25.392Z,25.27
2019-04-27T07:52:55.836Z,23.60
2019-04-27T07:55:26.102Z,24.10
2019-04-27T07:57:56.008Z,25.50
2019-04-27T08:00:25.937Z,23.83
2019-04-27T08:02:55.828Z,21.40
2019-04-27T08:05:26.331Z,21.33
2019-04-27T08:07:56.178Z,23.93
2019-04-27T08:10:26.119Z,23.90
2019-04-27T08:12:56.301Z,22.42
2019-04-27T08:15:26.607Z,23.60
2019-04-27T08:17:56.509Z,21.27
2019-04-27T08:20:26.700Z,22.87
2019-04-27T08:22:56.564Z,22.33
2019-04-27T08:25:26.693Z,20.68
2019-04-27T08:28:05.339Z,21.90
2019-04-27T08:30:44.739Z,21.63
2019-04-27T08:33:15.097Z,22.65
2019-04-27T08:35:45.405Z,24.07
2019-04-27T08:38:15.391Z,21.97
2019-04-27T08:40:45.647Z,22.80
2019-04-27T08:43:15.550Z,22.02
2019-04-27T08:45:45.400Z,22.77
2019-04-27T08:48:15.835Z,21.50
2019-04-27T08:50:45.702Z,20.17
2019-04-27T08:53:15.993Z,19.20
2019-04-27T08:55:49.654Z,18.00
2019-04-27T08:58:19.687Z,19.23
2019-04-27T09:00:50.873Z,16.90
2019-04-27T09:03:20.742Z,16.50
2019-04-27T09:05:51.157Z,17.63
2019-04-27T09:08:30.821Z,17.07
2019-04-27T09:11:20.554Z,17.05
2019-04-27T09:13:59.510Z,16.33
2019-04-27T09:16:41.432Z,14.90
2019-04-27T09:19:20.386Z,13.30
2019-04-27T09:22:12.296Z,12.73
2019-04-27T09:24:35.555Z,11.50
2019-04-27T09:27:06.671Z,12.27
2019-04-27T09:29:39.520Z,12.27
2019-04-27T09:32:09.685Z,12.37
2019-04-27T09:34:39.543Z,13.30
2019-04-27T09:37:09.754Z,12.30
2019-04-27T09:39:39.593Z,11.77
2019-04-27T09:42:09.433Z,11.53
2019-04-27T09:44:39.287Z,10.57
2019-04-27T09:47:09.534Z,11.23
2019-04-27T09:49:39.367Z,10.53
2019-04-27T09:52:09.223Z,7.90
2019-04-27T09:54:39.112Z,6.60
2019-04-27T09:57:08.996Z,6.53
2019-04-27T09:59:39.794Z,6.80
2019-04-27T10:02:09.901Z,6.77
2019-04-27T10:04:39.839Z,7.10
2019-04-27T10:07:09.873Z,8.23
2019-04-27T10:09:40.313Z,8.17
2019-04-27T10:12:10.188Z,8.00
2019-04-27T10:14:40.358Z,7.00
2019-04-27T10:17:10.253Z,7.60
2019-04-27T10:19:40.132Z,7.40
2019-04-27T10:22:10.414Z,8.30
2019-04-27T10:24:40.321Z,7.80
2019-04-27T10:27:10.560Z,8.30
2019-04-27T10:29:40.741Z,7.53
2019-04-27T10:32:10.691Z,8.40
2019-04-27T10:34:40.584Z,7.90
2019-04-27T10:37:10.460Z,7.40
2019-04-27T10:39:40.328Z,6.27
2019-04-27T10:42:10.166Z,3.83
2019-04-27T10:44:40.001Z,3.50
2019-04-27T10:47:10.428Z,4.50
2019-04-27T10:49:40.975Z,4.67
2019-04-27T10:52:10.825Z,5.20
2019-04-27T10:54:40.720Z,6.43
2019-04-27T10:57:10.605Z,6.20
2019-04-27T10:59:40.432Z,7.80
2019-04-27T11:02:10.399Z,7.70
2019-04-27T11:05:01.405Z,9.47
2019-04-27T11:07:36.203Z,5.27
2019-04-27T11:10:07.880Z,4.10
2019-04-27T11:12:37.845Z,2.13
2019-04-27T11:15:09.446Z,2.63
2019-04-27T11:17:39.355Z,3.07
2019-04-27T11:20:10.147Z,2.93
2019-04-27T11:22:40.003Z,1.87
2019-04-27T11:25:10.326Z,1.63
2019-04-27T11:27:40.152Z,1.57
2019-04-27T11:30:29.290Z,1.60
2019-04-27T11:32:59.426Z,1.77
2019-04-27T11:35:40.332Z,1.30
2019-04-27T11:38:10.497Z,1.57
2019-04-27T11:40:40.413Z,1.90
2019-04-27T11:43:10.279Z,1.67
2019-04-27T11:45:59.410Z,1.30
2019-04-27T11:48:29.901Z,1.63
2019-04-27T11:51:00.081Z,1.70
2019-04-27T11:53:30.245Z,1.47
2019-04-27T11:56:00.433Z,1.10
2019-04-27T11:58:30.460Z,1.40
2019-04-27T12:01:00.384Z,1.33
2019-04-27T12:03:30.236Z,1.40
2019-04-27T12:06:00.417Z,1.30
2019-04-27T12:08:30.624Z,1.13
2019-04-27T12:11:00.573Z,1.60
2019-04-27T12:13:31.014Z,1.67
2019-04-27T12:16:01.237Z,2.00
2019-04-27T12:18:31.572Z,2.17
2019-04-27T12:21:02.089Z,1.70
2019-04-27T12:23:35.963Z,2.50
2019-04-27T12:26:05.710Z,2.23
2019-04-27T12:28:41.933Z,2.57
2019-04-27T12:31:16.710Z,3.40
2019-04-27T12:33:46.863Z,3.10
2019-04-27T12:36:16.785Z,2.70
2019-04-27T12:38:47.017Z,2.43
2019-04-27T12:41:17.130Z,2.70
2019-04-27T12:43:47.008Z,3.47
2019-04-27T12:46:17.217Z,3.80
2019-04-27T12:48:47.091Z,3.23
2019-04-27T12:51:17.404Z,3.53
2019-04-27T12:53:56.748Z,3.60
2019-04-27T12:56:39.161Z,3.90
2019-04-27T12:59:36.952Z,4.10
2019-04-27T13:02:07.518Z,4.30
2019-04-27T13:04:38.399Z,4.37
2019-04-27T13:07:08.519Z,4.30
2019-04-27T13:09:38.698Z,5.20
2019-04-27T13:12:08.883Z,6.63
2019-04-27T13:14:39.003Z,7.50
2019-04-27T13:17:09.166Z,8.13
2019-04-27T13:19:39.042Z,8.10
2019-04-27T13:22:09.285Z,8.23
2019-04-27T13:24:39.183Z,8.17
2019-04-27T13:27:09.417Z,7.33
2019-04-27T13:29:39.602Z,6.80
2019-04-27T13:32:09.808Z,6.40
2019-04-27T13:34:39.693Z,7.57
2019-04-27T13:37:27.297Z,8.40
2019-04-27T13:40:04.738Z,8.63
2019-04-27T13:42:31.035Z,7.73
2019-04-27T13:45:02.892Z,5.73
2019-04-27T13:47:44.040Z,4.23
2019-04-27T13:50:22.884Z,3.50
2019-04-27T13:53:08.416Z,4.00
2019-04-27T13:55:38.763Z,4.83
2019-04-27T13:58:09.012Z,4.07
2019-04-27T14:00:39.237Z,4.10
2019-04-27T14:03:09.470Z,4.90
2019-04-27T14:05:39.415Z,2.40
2019-04-27T14:08:09.293Z,2.73
2019-04-27T14:10:39.698Z,2.83
2019-04-27T14:13:11.114Z,2.20
2019-04-27T14:15:41.185Z,1.90
2019-04-27T14:18:11.395Z,5.97
2019-04-27T14:20:41.305Z,7.70
2019-04-27T14:23:34.850Z,8.40
2019-04-27T14:26:03.956Z,7.40
2019-04-27T14:28:34.064Z,6.97
2019-04-27T14:31:04.244Z,6.00
2019-04-27T14:33:34.103Z,4.60
2019-04-27T14:36:04.010Z,4.30
2019-04-27T14:38:33.923Z,4.07
2019-04-27T14:41:03.802Z,3.40
2019-04-27T14:43:33.878Z,3.33
2019-04-27T14:46:03.836Z,3.10
2019-04-27T14:48:33.693Z,2.17
2019-04-27T14:51:03.554Z,2.77
2019-04-27T14:53:33.717Z,1.73
2019-04-27T14:56:03.851Z,1.80
2019-04-27T14:58:33.720Z,1.30
2019-04-27T15:01:03.815Z,1.83
2019-04-27T15:03:33.701Z,1.23
2019-04-27T15:06:03.810Z,2.20
2019-04-27T15:08:34.177Z,2.10
2019-04-27T15:11:10.192Z,2.10
2019-04-27T15:13:37.914Z,2.30
2019-04-27T15:16:08.388Z,2.10
2019-04-27T15:18:43.761Z,1.77
2019-04-27T15:21:13.871Z,2.13
2019-04-27T15:23:43.740Z,2.33
2019-04-27T15:26:15.440Z,2.10
2019-04-27T15:28:49.444Z,2.87
2019-04-27T15:31:29.536Z,3.37
2019-04-27T15:34:13.098Z,4.20
2019-04-27T15:37:11.113Z,3.93
2019-04-27T15:39:58.278Z,3.60
2019-04-27T15:42:41.546Z,3.30
2019-04-27T15:45:08.971Z,2.63
2019-04-27T15:47:42.464Z,3.40
2019-04-27T15:50:11.753Z,2.90
2019-04-27T15:52:41.616Z,3.20
2019-04-27T15:55:31.162Z,1.70
2019-04-27T15:57:47.032Z,1.47
2019-04-27T16:00:24.054Z,2.10
2019-04-27T16:02:53.895Z,2.07
2019-04-27T16:05:28.672Z,2.83
2019-04-27T16:07:59.167Z,2.47
2019-04-27T16:10:28.452Z,1.80
2019-04-27T16:13:06.552Z,2.23
2019-04-27T16:15:30.146Z,1.80
2019-04-27T16:18:00.510Z,1.33
2019-04-27T16:20:33.852Z,1.13
2019-04-27T16:23:03.390Z,1.77
2019-04-27T16:25:46.016Z,1.60
2019-04-27T16:28:09.582Z,1.93
2019-04-27T16:30:39.150Z,1.47
2019-04-27T16:33:09.484Z,1.57
2019-04-27T16:35:39.358Z,1.37
2019-04-27T16:38:34.557Z,2.00
2019-04-27T16:41:04.252Z,1.73
2019-04-27T16:43:34.155Z,2.03
2019-04-27T16:46:05.366Z,2.00
2019-04-27T16:48:36.324Z,1.00
2019-04-27T16:51:06.382Z,0.80
2019-04-27T16:53:39.751Z,0.70
2019-04-27T16:56:14.431Z,0.67
2019-04-27T16:58:40.362Z,0.77
2019-04-27T17:01:28.460Z,0.87
2019-04-27T17:03:59.346Z,0.73
2019-04-27T17:06:29.823Z,1.00
2019-04-27T17:09:05.542Z,0.90
2019-04-27T17:11:31.338Z,0.90
2019-04-27T17:14:08.799Z,0.90
2019-04-27T17:16:54.371Z,0.80
2019-04-27T17:19:30.732Z,1.10
2019-04-27T17:22:01.012Z,1.60
2019-04-27T17:24:42.287Z,1.10
2019-04-27T17:27:11.564Z,1.10
2019-04-27T17:29:42.048Z,1.30
2019-04-27T17:32:30.370Z,1.17
2019-04-27T17:35:02.084Z,1.20
2019-04-27T17:37:33.631Z,1.00
2019-04-27T17:40:01.258Z,0.83
2019-04-27T17:42:31.129Z,0.80
2019-04-27T17:45:01.202Z,1.00
2019-04-27T17:47:31.154Z,0.80
2019-04-27T17:50:01.261Z,0.97
2019-04-27T17:52:31.222Z,0.73
2019-04-27T17:55:01.336Z,1.10
2019-04-27T17:57:31.508Z,1.00
2019-04-27T18:00:03.366Z,1.13
2019-04-27T18:02:33.921Z,1.10
2019-04-27T18:05:05.227Z,1.10
2019-04-27T18:07:42.637Z,1.10
2019-04-27T18:10:08.731Z,1.00
2019-04-27T18:12:38.713Z,1.00
2019-04-27T18:15:10.443Z,1.30
2019-04-27T18:17:48.200Z,1.40
2019-04-27T18:20:15.919Z,1.30
2019-04-27T18:22:49.446Z,1.00
2019-04-27T18:25:19.268Z,1.17
2019-04-27T18:28:07.960Z,2.07
2019-04-27T18:31:00.346Z,2.03
2019-04-27T18:33:32.579Z,1.83
2019-04-27T18:36:05.544Z,1.97
2019-04-27T18:38:35.597Z,2.40
2019-04-27T18:41:08.095Z,2.00
2019-04-27T18:43:39.596Z,1.83
2019-04-27T18:46:09.795Z,1.53
2019-04-27T18:49:01.744Z,1.83
2019-04-27T18:51:40.979Z,1.93
2019-04-27T18:54:11.131Z,2.07
2019-04-27T18:56:41.867Z,1.70
2019-04-27T18:59:11.756Z,1.40
2019-04-27T19:01:41.935Z,2.60
2019-04-27T19:04:11.803Z,2.50
2019-04-27T19:06:41.672Z,2.27
2019-04-27T19:09:11.669Z,2.67
2019-04-27T19:11:53.431Z,2.07
2019-04-27T19:14:13.120Z,2.50
2019-04-27T19:16:43.393Z,2.73
2019-04-27T19:19:13.348Z,2.70
2019-04-27T19:21:43.710Z,2.17
2019-04-27T19:24:13.821Z,2.50
2019-04-27T19:26:51.463Z,2.60
2019-04-27T19:29:31.138Z,2.33
2019-04-27T19:32:02.457Z,3.43
2019-04-27T19:34:32.346Z,3.03
2019-04-27T19:37:02.206Z,4.07
2019-04-27T19:39:32.191Z,3.57
2019-04-27T19:42:03.802Z,3.53
2019-04-27T19:44:34.355Z,3.70
2019-04-27T19:47:05.835Z,3.10
2019-04-27T19:49:38.701Z,3.00
2019-04-27T19:52:08.646Z,3.27
2019-04-27T19:54:39.829Z,3.60
2019-04-27T19:57:10.231Z,3.73
2019-04-27T19:59:46.510Z,3.07
2019-04-27T20:02:20.330Z,2.93
2019-04-27T20:05:00.565Z,3.13
2019-04-27T20:07:30.594Z,2.80
2019-04-27T20:10:01.970Z,3.80
2019-04-27T20:12:31.814Z,3.73
2019-04-27T20:15:02.383Z,3.43
2019-04-27T20:17:33.573Z,4.40
2019-04-27T20:20:04.832Z,5.00
2019-04-27T20:22:35.095Z,6.10
2019-04-27T20:25:05.964Z,6.10
2019-04-27T20:27:46.262Z,6.63
2019-04-27T20:30:11.124Z,7.17
2019-04-27T20:32:41.413Z,7.30
2019-04-27T20:35:11.857Z,6.60
2019-04-27T20:37:42.155Z,6.83
2019-04-27T20:40:12.538Z,7.50
2019-04-27T20:42:42.436Z,5.90
2019-04-27T20:45:12.747Z,5.00
2019-04-27T20:47:42.640Z,4.87
2019-04-27T20:50:12.748Z,5.40
2019-04-27T20:52:53.986Z,3.70
2019-04-27T20:55:24.802Z,4.30
2019-04-27T20:58:01.591Z,3.87
2019-04-27T21:00:26.574Z,3.47
2019-04-27T21:03:04.125Z,4.43
2019-04-27T21:05:53.216Z,4.03
2019-04-27T21:08:23.724Z,4.80
2019-04-27T21:10:53.627Z,5.57
2019-04-27T21:13:23.514Z,5.53
2019-04-27T21:15:53.381Z,6.10
2019-04-27T21:18:23.228Z,6.30
2019-04-27T21:20:53.082Z,5.70
2019-04-27T21:23:23.235Z,7.00
2019-04-27T21:25:53.660Z,6.50
2019-04-27T21:28:24.358Z,8.83
2019-04-27T21:30:54.271Z,8.20
2019-04-27T21:33:24.431Z,8.00
2019-04-27T21:35:54.347Z,8.60
2019-04-27T21:38:24.577Z,7.50
2019-04-27T21:40:54.474Z,7.93
2019-04-27T21:43:24.342Z,8.13
2019-04-27T21:45:54.808Z,7.20
2019-04-27T21:48:24.967Z,7.40
2019-04-27T21:50:55.809Z,7.30
2019-04-27T21:53:43.598Z,8.23
2019-04-27T21:56:13.644Z,7.73
2019-04-27T21:58:43.509Z,8.47
2019-04-27T22:01:41.693Z,8.53
2019-04-27T22:04:11.555Z,9.30
2019-04-27T22:06:42.526Z,8.50
2019-04-27T22:09:14.351Z,8.80
2019-04-27T22:11:44.666Z,7.80
2019-04-27T22:14:14.901Z,7.63
2019-04-27T22:16:44.995Z,8.03
2019-04-27T22:19:15.134Z,7.70
2019-04-27T22:21:45.629Z,9.77
2019-04-27T22:24:29.859Z,9.13
2019-04-27T22:27:00.321Z,7.97
2019-04-27T22:29:31.982Z,8.57
2019-04-27T22:32:01.819Z,8.77
2019-04-27T22:34:31.746Z,8.70
2019-04-27T22:37:02.717Z,8.40
2019-04-27T22:39:45.030Z,9.90
2019-04-27T22:42:38.069Z,7.93
2019-04-27T22:45:14.291Z,7.87
2019-04-27T22:47:44.827Z,7.47
2019-04-27T22:50:14.868Z,7.47
2019-04-27T22:52:45.066Z,8.47
2019-04-27T22:55:14.932Z,8.87
2019-04-27T22:57:53.121Z,7.17
2019-04-27T23:00:43.207Z,8.80
2019-04-27T23:03:16.934Z,9.40
2019-04-27T23:05:47.064Z,9.07
2019-04-27T23:08:17.503Z,9.70
2019-04-27T23:10:47.362Z,9.47
2019-04-27T23:13:17.544Z,9.17
2019-04-27T23:15:51.269Z,9.50
2019-04-27T23:18:22.649Z,9.20
2019-04-27T23:20:53.099Z,9.40
2019-04-27T23:23:22.960Z,10.13
2019-04-27T23:25:53.120Z,9.87
2019-04-27T23:28:23.534Z,9.60
2019-04-27T23:31:05.325Z,8.80
2019-04-27T23:33:36.003Z,9.37
2019-04-27T23:36:06.032Z,9.37
2019-04-27T23:38:35.913Z,9.23
2019-04-27T23:41:05.842Z,8.90
2019-04-27T23:43:36.304Z,9.47
2019-04-27T23:46:06.574Z,9.50
2019-04-27T23:48:36.800Z,9.67
2019-04-27T23:51:16.602Z,9.83
2019-04-27T23:53:46.765Z,9.20
2019-04-27T23:56:17.589Z,10.03
2019-04-27T23:58:47.736Z,8.60
